Time;durP1;ratioP1;P1;durP2;ratioP2;P2;SDS_P1;SDS_P2;PMS_P1;PMS_P2;Temp;Humidity;BMP_temperature;BMP_pressure;BME280_temperature;BME280_humidity;BME280_pressure;Samples;Min_cycle;Max_cycle;Signal;HPM_P1;HPM_P2
2023/10/11 00:00:39;;;;;;;;;24.00;23.33;;;;;17.70;83.75;101301.72;5007753;28;8975;-68
2023/10/11 00:05:54;;;;;;;;;24.00;22.33;;;;;17.69;84.14;101307.38;5007184;28;9172;-67
2023/10/11 00:08:33;;;;;;;;;23.00;18.00;;;;;17.68;84.53;101303.00;5008663;28;9139;-68
2023/10/11 00:11:01;;;;;;;;;19.00;19.00;;;;;17.69;84.61;101304.63;5009505;28;9015;-67
2023/10/11 00:13:32;;;;;;;;;24.33;22.00;;;;;17.68;84.60;101306.53;5009202;28;9164;-68
2023/10/11 00:16:08;;;;;;;;;25.33;21.67;;;;;17.69;84.39;101310.91;5007189;28;9067;-66
2023/10/11 00:18:38;;;;;;;;;19.33;18.00;;;;;17.69;84.45;101302.75;5003387;28;9711;-69
2023/10/11 00:21:17;;;;;;;;;20.00;19.33;;;;;17.68;84.40;101305.72;5007891;28;10007;-69
2023/10/11 00:23:50;;;;;;;;;23.00;20.33;;;;;17.66;84.43;101299.66;5007062;28;9162;-68
2023/10/11 00:26:18;;;;;;;;;18.67;17.00;;;;;17.68;84.63;101294.81;5009078;28;8991;-69
2023/10/11 00:28:56;;;;;;;;;18.33;18.33;;;;;17.63;84.49;101290.06;5008090;28;9113;-67
2023/10/11 00:31:23;;;;;;;;;25.00;24.67;;;;;17.60;84.44;101295.97;5007137;28;9203;-68
2023/10/11 00:33:49;;;;;;;;;20.33;18.33;;;;;17.62;84.62;101295.72;5008257;28;9781;-68
2023/10/11 00:36:16;;;;;;;;;29.33;22.67;;;;;17.64;84.61;101286.28;5009504;28;8996;-69
2023/10/11 00:38:50;;;;;;;;;19.00;14.67;;;;;17.68;84.25;101297.53;5006851;28;9090;-68
2023/10/11 00:41:20;;;;;;;;;18.75;18.00;;;;;17.67;84.33;101293.16;5008925;28;9012;-68
2023/10/11 00:43:51;;;;;;;;;24.00;21.67;;;;;17.67;84.34;101288.53;5008069;28;8844;-67
2023/10/11 00:46:25;;;;;;;;;21.67;20.67;;;;;17.64;83.98;101280.84;5008511;28;9321;-69
2023/10/11 00:48:54;;;;;;;;;19.67;18.00;;;;;17.65;83.83;101277.03;4991725;28;9195;-69
2023/10/11 00:51:30;;;;;;;;;21.00;16.00;;;;;17.65;84.19;101277.03;5008867;28;9061;-69
2023/10/11 00:53:59;;;;;;;;;18.67;17.67;;;;;17.66;83.72;101270.56;5008201;28;9008;-68
2023/10/11 00:56:31;;;;;;;;;21.00;16.33;;;;;17.65;83.94;101268.03;5008838;28;9002;-68
2023/10/11 00:59:08;;;;;;;;;20.67;18.00;;;;;17.65;84.01;101271.59;5006635;28;9025;-69
2023/10/11 01:01:39;;;;;;;;;19.67;19.67;;;;;17.61;83.87;101270.41;5008041;28;9012;-68
2023/10/11 01:04:16;;;;;;;;;18.00;17.33;;;;;17.57;83.90;101269.19;5006742;28;9195;-68
2023/10/11 01:06:44;;;;;;;;;19.00;17.67;;;;;17.54;84.39;101264.19;4995550;28;9899;-68
2023/10/11 01:09:26;;;;;;;;;18.00;15.33;;;;;17.57;84.11;101266.47;5006588;28;9006;-69
2023/10/11 01:11:53;;;;;;;;;19.33;19.33;;;;;17.55;84.04;101274.88;5008065;28;8907;-67
2023/10/11 01:14:23;;;;;;;;;17.00;17.00;;;;;17.50;83.93;101272.03;5007350;28;8986;-68
2023/10/11 01:16:51;;;;;;;;;26.00;21.00;;;;;17.47;83.85;101263.47;5010823;28;9026;-68
2023/10/11 01:19:18;;;;;;;;;13.67;13.67;;;;;17.47;84.15;101274.38;5011339;28;9247;-68
2023/10/11 01:21:48;;;;;;;;;22.33;18.33;;;;;17.45;84.12;101268.31;5010532;28;9022;-68
2023/10/11 01:24:16;;;;;;;;;17.00;17.00;;;;;17.48;84.05;101265.97;5012314;28;9316;-68
2023/10/11 01:26:43;;;;;;;;;22.00;18.00;;;;;17.52;84.04;101263.63;4995502;28;8962;-68
2023/10/11 01:29:09;;;;;;;;;19.00;16.33;;;;;17.55;83.77;101252.28;5012127;28;9014;-67
2023/10/11 01:31:37;;;;;;;;;19.33;13.67;;;;;17.54;83.35;101253.31;5009285;28;9008;-67
2023/10/11 01:34:04;;;;;;;;;20.00;18.00;;;;;17.53;83.28;101251.66;5008332;28;9248;-67
2023/10/11 01:36:31;;;;;;;;;18.33;16.67;;;;;17.51;83.45;101243.75;5010868;28;9011;-68
2023/10/11 01:39:08;;;;;;;;;24.33;21.33;;;;;17.50;83.26;101239.38;5011951;28;9235;-69
2023/10/11 01:41:40;;;;;;;;;16.00;13.00;;;;;17.52;83.58;101236.41;5012338;28;9213;-68
2023/10/11 01:44:07;;;;;;;;;20.00;19.00;;;;;17.55;83.41;101233.22;5009997;28;8991;-68
2023/10/11 01:46:39;;;;;;;;;16.67;15.67;;;;;17.55;83.14;101233.22;5005003;28;9162;-68
2023/10/11 01:49:07;;;;;;;;;26.67;19.67;;;;;17.50;83.01;101227.63;5010959;28;9064;-70
2023/10/11 01:51:39;;;;;;;;;24.00;20.33;;;;;17.47;83.22;101223.47;5013130;28;9072;-68
2023/10/11 01:54:11;;;;;;;;;20.00;14.67;;;;;17.47;83.20;101218.03;5012899;28;9862;-68
2023/10/11 01:56:39;;;;;;;;;21.00;17.33;;;;;17.49;83.28;101215.06;5008012;28;9091;-69
2023/10/11 01:59:07;;;;;;;;;18.67;17.00;;;;;17.49;83.17;101213.19;5010466;28;9249;-69
2023/10/11 02:01:39;;;;;;;;;17.67;14.33;;;;;17.50;83.13;101220.31;4995212;28;9028;-68
2023/10/11 02:04:14;;;;;;;;;21.00;19.00;;;;;17.49;82.99;101209.63;5010144;28;8980;-69
2023/10/11 02:06:41;;;;;;;;;24.67;22.00;;;;;17.48;83.03;101210.69;5009128;28;9192;-69
2023/10/11 02:09:11;;;;;;;;;23.33;23.00;;;;;17.45;83.22;101213.88;5007398;28;9310;-68
2023/10/11 02:11:41;;;;;;;;;18.67;17.67;;;;;17.45;83.13;101211.16;5012647;28;9341;-69
2023/10/11 02:14:09;;;;;;;;;21.33;20.33;;;;;17.47;83.27;101211.78;5010516;28;10274;-69
2023/10/11 02:16:36;;;;;;;;;18.00;17.00;;;;;17.49;83.19;101215.06;5009264;28;9236;-68
2023/10/11 02:19:05;;;;;;;;;27.33;17.67;;;;;17.50;83.04;101206.69;5010292;28;9412;-67
2023/10/11 02:21:31;;;;;;;;;19.00;19.00;;;;;17.47;83.18;101214.50;5008549;28;9172;-68
2023/10/11 02:23:59;;;;;;;;;18.33;16.33;;;;;17.46;83.22;101216.38;4993688;28;9189;-68
2023/10/11 02:26:34;;;;;;;;;16.00;14.67;;;;;17.46;82.59;101219.09;5009720;28;9031;-68
2023/10/11 02:29:06;;;;;;;;;15.00;14.67;;;;;17.44;82.97;101226.66;5008717;28;9091;-68
2023/10/11 02:31:36;;;;;;;;;22.00;16.67;;;;;17.44;82.87;101228.56;5008927;28;9082;-69
2023/10/11 02:34:15;;;;;;;;;14.33;14.33;;;;;17.47;83.06;101231.66;5002579;28;9198;-68
2023/10/11 02:36:42;;;;;;;;;21.00;19.00;;;;;17.44;82.91;101220.38;5009806;28;8945;-67
2023/10/11 02:39:20;;;;;;;;;22.33;16.33;;;;;17.45;83.08;101222.03;5011071;28;9006;-69
2023/10/11 02:41:57;;;;;;;;;20.33;17.67;;;;;17.45;82.82;101211.97;5009795;28;9297;-68
2023/10/11 02:44:25;;;;;;;;;21.33;18.33;;;;;17.45;83.13;101211.97;5009266;28;9095;-68
2023/10/11 02:46:52;;;;;;;;;23.67;22.33;;;;;17.33;83.08;101207.56;5010018;28;9066;-68
2023/10/11 02:49:20;;;;;;;;;19.00;15.67;;;;;17.33;83.46;101210.28;5009874;28;9158;-68
2023/10/11 02:51:55;;;;;;;;;19.33;18.33;;;;;17.34;83.28;101201.03;5010740;28;9237;-68
2023/10/11 02:54:34;;;;;;;;;17.33;16.00;;;;;17.40;83.50;101202.84;5008916;28;9856;-68
2023/10/11 02:57:05;;;;;;;;;19.67;17.33;;;;;17.39;83.20;101201.22;5010182;28;9093;-68
2023/10/11 02:59:34;;;;;;;;;22.67;17.67;;;;;17.37;83.22;101208.75;4992834;28;9149;-68
2023/10/11 03:02:01;;;;;;;;;19.00;19.00;;;;;17.36;83.38;101196.22;5003446;28;9247;-67
2023/10/11 03:04:39;;;;;;;;;21.00;18.67;;;;;17.33;83.27;101204.84;4984561;28;9238;-68
2023/10/11 03:07:12;;;;;;;;;17.33;15.33;;;;;17.33;83.30;101202.94;5008182;28;8986;-68
2023/10/11 03:09:40;;;;;;;;;20.00;20.00;;;;;17.32;83.15;101206.72;5007806;28;9011;-67
2023/10/11 03:12:51;;;;;;;;;21.00;18.00;;;;;17.32;83.40;101208.63;5001772;28;9085;-68
2023/10/11 03:15:06;;;;;;;;;17.33;17.00;;;;;17.30;83.73;101206.97;5002733;28;9192;-69
2023/10/11 03:17:40;;;;;;;;;18.67;17.67;;;;;17.32;83.76;101211.34;5010878;28;9114;-68
2023/10/11 03:22:53;;;;;;;;;25.33;22.33;;;;;17.36;83.35;101196.22;5009009;28;9238;-67
2023/10/11 03:25:19;;;;;;;;;19.33;18.00;;;;;17.34;83.24;101192.88;5008270;28;9400;-68
2023/10/11 03:27:49;;;;;;;;;22.67;20.33;;;;;17.28;83.59;101183.75;5010378;28;9341;-68
2023/10/11 03:30:16;;;;;;;;;24.00;21.00;;;;;17.29;83.95;101180.81;5008557;28;9398;-66
2023/10/11 03:32:44;;;;;;;;;28.00;20.33;;;;;17.25;83.71;101176.88;5009843;28;9429;-67
2023/10/11 03:35:16;;;;;;;;;23.33;22.00;;;;;17.26;83.83;101185.91;4987401;28;9406;-66
2023/10/11 03:37:57;;;;;;;;;18.33;18.00;;;;;17.29;83.86;101177.25;5008416;28;9342;-66
2023/10/11 03:40:54;;;;;;;;;19.67;17.67;;;;;17.32;84.04;101179.53;5008677;28;9283;-67
2023/10/11 03:43:23;;;;;;;;;17.33;16.67;;;;;17.36;84.02;101174.44;4992047;28;9854;-65
2023/10/11 03:45:51;;;;;;;;;20.00;17.67;;;;;17.34;83.43;101176.56;5009410;28;9320;-65
2023/10/11 03:48:20;;;;;;;;;22.33;21.67;;;;;17.36;83.72;101177.16;5009255;28;9451;-66
2023/10/11 03:50:47;;;;;;;;;20.33;18.00;;;;;17.36;83.87;101166.28;5005333;28;9301;-67
2023/10/11 03:53:15;;;;;;;;;21.00;17.67;;;;;17.35;83.71;101159.19;5008400;28;9162;-67
2023/10/11 03:55:46;;;;;;;;;23.00;18.33;;;;;17.32;83.85;101156.94;5008689;28;9228;-66
2023/10/11 04:01:13;;;;;;;;;19.00;18.00;;;;;17.31;84.03;101169.69;5005609;28;9337;-67
2023/10/11 04:03:41;;;;;;;;;17.33;15.33;;;;;17.30;83.65;101162.59;5003018;28;9163;-67
2023/10/11 04:06:15;;;;;;;;;21.00;21.00;;;;;17.32;83.91;101178.69;4999336;28;9004;-67
2023/10/11 04:09:00;;;;;;;;;23.00;22.00;;;;;17.34;84.03;101179.28;5007298;28;9156;-67
2023/10/11 04:11:30;;;;;;;;;19.33;19.00;;;;;17.37;83.84;101182.38;5005047;28;9142;-67
2023/10/11 04:13:57;;;;;;;;;22.67;20.00;;;;;17.33;83.89;101185.78;5008003;28;9914;-66
2023/10/11 04:16:24;;;;;;;;;22.00;19.67;;;;;17.29;83.75;101179.97;5007344;28;9132;-66
2023/10/11 04:18:52;;;;;;;;;28.67;22.00;;;;;17.26;84.10;101173.13;5007306;28;9126;-67
2023/10/11 04:24:06;;;;;;;;;21.67;21.33;;;;;17.23;84.37;101173.56;5009642;28;9298;-67
2023/10/11 04:26:36;;;;;;;;;25.00;22.33;;;;;17.18;84.48;101167.19;5007856;28;9243;-68
2023/10/11 04:29:07;;;;;;;;;26.33;24.33;;;;;17.14;84.69;101161.34;5005969;28;9167;-66
2023/10/11 04:31:55;;;;;;;;;17.00;16.67;;;;;17.16;84.97;101166.56;5009223;28;9363;-66
2023/10/11 04:34:32;;;;;;;;;23.33;22.00;;;;;17.19;84.41;101164.22;5007737;28;9173;-66
2023/10/11 04:37:05;;;;;;;;;23.67;22.00;;;;;17.21;84.59;101162.06;5003976;28;9266;-66
2023/10/11 04:39:34;;;;;;;;;19.33;17.33;;;;;17.21;84.92;101170.25;5008724;28;9233;-67
2023/10/11 04:42:02;;;;;;;;;20.67;17.67;;;;;17.23;84.71;101170.03;5008675;28;9238;-68
2023/10/11 04:45:06;;;;;;;;;19.00;18.33;;;;;17.21;84.91;101164.78;5022033;28;9320;-67
2023/10/11 04:47:23;;;;;;;;;20.33;18.00;;;;;17.22;85.22;101162.94;5004914;28;9330;-67
2023/10/11 04:49:54;;;;;;;;;22.00;20.00;;;;;17.20;84.98;101163.16;5003704;28;9270;-66
2023/10/11 04:52:24;;;;;;;;;22.00;20.33;;;;;17.20;84.92;101163.16;5009486;28;9185;-66
2023/10/11 04:54:54;;;;;;;;;31.50;26.50;;;;;17.12;85.06;101157.19;5012440;28;9333;-66
2023/10/11 04:58:04;;;;;;;;;21.67;19.00;;;;;17.13;85.52;101154.22;5012003;28;9522;-67
2023/10/11 05:00:18;;;;;;;;;19.00;18.00;;;;;17.16;85.40;101152.97;5008193;28;9431;-67
2023/10/11 05:02:51;;;;;;;;;28.67;26.00;;;;;17.14;85.31;101149.66;5006699;28;9394;-66
2023/10/11 05:05:21;;;;;;;;;31.67;28.33;;;;;17.16;85.77;101152.97;5007934;28;9351;-67
2023/10/11 05:07:53;;;;;;;;;24.33;22.33;;;;;17.13;85.87;101151.50;5002546;28;9170;-66
2023/10/11 05:12:57;;;;;;;;;31.00;27.33;;;;;17.09;85.85;101153.03;5012470;28;9156;-67
2023/10/11 05:15:34;;;;;;;;;26.67;24.33;;;;;17.10;86.27;101146.56;5012753;28;9374;-67
2023/10/11 05:18:06;;;;;;;;;24.00;20.67;;;;;17.09;85.99;101146.78;5012760;28;9490;-66
2023/10/11 05:20:44;;;;;;;;;32.00;24.25;;;;;17.09;86.25;101139.44;5011319;28;9409;-66
2023/10/11 05:23:14;;;;;;;;;28.00;24.67;;;;;17.10;86.34;101149.28;5011166;28;9498;-66
2023/10/11 05:25:58;;;;;;;;;24.33;22.00;;;;;17.13;86.28;101145.25;5011277;28;9263;-67
2023/10/11 05:28:27;;;;;;;;;18.00;17.50;;;;;17.16;86.19;101155.69;5007219;28;9292;-68
2023/10/11 05:33:59;;;;;;;;;23.00;21.33;;;;;17.16;86.23;101150.25;5010790;28;9144;-66
2023/10/11 05:52:56;;;;;;;;;23.67;22.33;;;;;17.16;87.14;101158.41;5009306;28;9396;-67
2023/10/11 05:55:22;;;;;;;;;30.33;21.00;;;;;17.14;87.30;101155.91;5006810;28;9233;-67
2023/10/11 05:57:50;;;;;;;;;26.67;22.33;;;;;17.17;87.33;101157.31;5003571;28;9310;-67
2023/10/11 06:00:23;;;;;;;;;21.67;19.00;;;;;17.19;87.24;101158.78;5006732;28;9361;-66
2023/10/11 06:02:52;;;;;;;;;30.00;25.67;;;;;17.21;86.83;101153.91;5011379;28;9269;-66
2023/10/11 06:05:23;;;;;;;;;31.50;28.00;;;;;17.20;87.07;101152.25;5005529;28;9231;-67
2023/10/11 06:08:00;;;;;;;;;16.67;16.67;;;;;17.22;87.04;101166.47;5005871;28;9543;-67
2023/10/11 06:10:41;;;;;;;;;20.00;18.00;;;;;17.23;87.10;101170.03;5011066;28;9282;-67
2023/10/11 06:13:14;;;;;;;;;25.00;21.33;;;;;17.25;87.19;101176.06;5011157;28;9307;-65
2023/10/11 06:16:00;;;;;;;;;25.33;23.67;;;;;17.25;86.96;101176.06;5008298;28;9176;-68
2023/10/11 06:18:52;;;;;;;;;28.00;24.00;;;;;17.25;87.22;101179.59;5012035;28;10044;-66
2023/10/11 06:21:24;;;;;;;;;20.67;20.00;;;;;17.29;87.45;101177.25;5011675;28;9961;-66
2023/10/11 06:23:53;;;;;;;;;21.67;19.67;;;;;17.31;87.28;101177.88;5009669;28;9147;-66
2023/10/11 06:26:52;;;;;;;;;20.00;18.00;;;;;17.30;87.18;101182.47;5006265;28;10011;-67
2023/10/11 06:29:22;;;;;;;;;21.00;20.00;;;;;17.33;87.27;101178.44;5002407;28;9350;-67
2023/10/11 06:31:52;;;;;;;;;23.33;22.00;;;;;17.36;87.05;101171.72;5011895;28;9211;-63
2023/10/11 06:34:35;;;;;;;;;28.00;23.00;;;;;17.38;87.16;101183.19;5010943;28;9161;-67
2023/10/11 06:37:02;;;;;;;;;26.00;20.67;;;;;17.39;86.96;101187.59;5011245;28;10095;-66
2023/10/11 06:42:21;;;;;;;;;20.33;17.67;;;;;17.52;87.18;101181.97;4994249;28;10881;-65
2023/10/11 06:44:57;;;;;;;;;19.33;17.33;;;;;17.58;86.55;101178.28;5008568;28;9884;-66
2023/10/11 06:47:26;;;;;;;;;17.67;15.00;;;;;17.60;86.22;101175.34;5011060;28;9042;-64
2023/10/11 06:49:54;;;;;;;;;21.00;20.00;;;;;17.59;86.18;101174.53;5011702;28;8984;-67
2023/10/11 06:52:26;;;;;;;;;17.33;16.33;;;;;17.59;86.06;101179.16;4994197;28;9297;-65
2023/10/11 06:57:52;;;;;;;;;20.00;16.00;;;;;17.55;86.58;101182.31;5011422;28;9158;-66
2023/10/11 07:00:21;;;;;;;;;22.00;19.67;;;;;17.57;86.70;101186.69;5011593;28;8987;-67
2023/10/11 07:03:21;;;;;;;;;25.33;23.00;;;;;17.54;86.46;101185.25;5011496;28;9156;-65
2023/10/11 07:06:00;;;;;;;;;15.67;15.67;;;;;17.57;86.82;101181.25;4993884;28;9148;-66
2023/10/11 07:08:31;;;;;;;;;21.33;19.00;;;;;17.57;87.06;101184.81;5011115;28;9160;-65
2023/10/11 07:11:17;;;;;;;;;20.00;17.67;;;;;17.53;86.91;101191.78;5011398;28;9238;-65
2023/10/11 07:13:54;;;;;;;;;19.33;19.00;;;;;17.54;87.07;101191.56;5009374;28;9226;-65
2023/10/11 07:16:24;;;;;;;;;23.00;17.00;;;;;17.55;87.22;101190.50;5009777;28;9091;-66
2023/10/11 07:18:54;;;;;;;;;20.67;18.67;;;;;17.56;87.20;101191.31;5009717;28;9994;-66
2023/10/11 07:21:25;;;;;;;;;19.25;17.00;;;;;17.60;87.37;101189.78;5011124;28;10061;-66
2023/10/11 07:28:52;;;;;;;;;14.00;13.00;;;;;17.62;87.17;101206.72;5009487;28;9018;-66
2023/10/11 07:31:33;;;;;;;;;18.67;15.67;;;;;17.67;87.04;101216.94;5010720;28;9019;-66
2023/10/11 07:34:06;;;;;;;;;15.00;15.00;;;;;17.68;86.84;101205.81;5009710;28;8999;-66
2023/10/11 07:36:36;;;;;;;;;16.00;11.67;;;;;17.67;87.18;101195.16;5010459;28;8994;-65
2023/10/11 07:42:09;;;;;;;;;16.67;15.33;;;;;17.66;87.32;101191.59;5009661;28;9071;-65
2023/10/11 07:44:37;;;;;;;;;15.33;14.00;;;;;17.58;87.31;101181.00;5010858;28;9788;-65
2023/10/11 07:47:07;;;;;;;;;13.67;12.00;;;;;17.54;87.60;101193.44;5010408;28;9771;-65
2023/10/11 07:49:40;;;;;;;;;15.33;11.33;;;;;17.56;87.38;101199.50;5009043;28;9027;-65
2023/10/11 07:52:09;;;;;;;;;11.00;11.00;;;;;17.60;87.30;101191.69;5010226;28;9001;-66
2023/10/11 07:54:39;;;;;;;;;14.33;12.00;;;;;17.59;87.23;101193.59;5009424;28;8979;-66
2023/10/11 07:57:13;;;;;;;;;14.67;11.67;;;;;17.60;87.03;101203.41;5010222;28;9016;-66
2023/10/11 07:59:41;;;;;;;;;15.33;13.67;;;;;17.61;87.11;101207.78;5010501;28;8954;-65
2023/10/11 08:02:25;;;;;;;;;14.67;14.67;;;;;17.64;87.23;101220.94;5010287;28;9096;-65
2023/10/11 08:04:53;;;;;;;;;14.00;12.33;;;;;17.61;87.04;101226.00;5010499;28;8912;-67
2023/10/11 08:07:22;;;;;;;;;11.67;10.33;;;;;17.60;87.03;101213.47;5009977;28;8934;-66
2023/10/11 08:09:53;;;;;;;;;11.67;11.67;;;;;17.61;87.14;101220.56;5010223;28;9008;-66
2023/10/11 08:12:23;;;;;;;;;13.67;13.00;;;;;17.55;86.88;101223.16;4992757;28;8979;-66
2023/10/11 08:14:53;;;;;;;;;14.67;13.00;;;;;17.56;86.62;101218.53;5010093;28;8982;-66
2023/10/11 08:17:21;;;;;;;;;7.67;7.67;;;;;17.60;86.78;101227.91;5009988;28;9043;-66
2023/10/11 08:19:55;;;;;;;;;10.33;10.33;;;;;17.61;86.74;101232.28;5010009;28;9109;-66
2023/10/11 08:22:25;;;;;;;;;11.50;10.50;;;;;17.56;86.43;101234.88;5010151;28;9087;-66
2023/10/11 08:24:56;;;;;;;;;9.67;9.67;;;;;17.57;86.46;101222.09;5008324;28;8860;-66
2023/10/11 08:27:29;;;;;;;;;13.00;12.00;;;;;17.52;86.27;101222.78;5009363;28;9120;-65
2023/10/11 08:30:07;;;;;;;;;17.00;14.00;;;;;17.53;86.55;101219.81;5010142;28;8913;-65
2023/10/11 08:32:43;;;;;;;;;7.00;7.00;;;;;17.57;86.51;101212.03;5010066;28;9061;-65
2023/10/11 08:35:34;;;;;;;;;10.67;9.33;;;;;17.52;86.59;101207.28;5009949;28;8988;-64
2023/10/11 08:38:06;;;;;;;;;10.33;10.33;;;;;17.52;86.41;101214.63;5008133;28;9858;-66
2023/10/11 08:40:36;;;;;;;;;9.75;9.75;;;;;17.55;86.36;101208.72;5008643;28;9116;-66
2023/10/11 08:43:06;;;;;;;;;11.33;10.33;;;;;17.61;86.53;101215.13;5009778;28;8875;-65
2023/10/11 08:45:49;;;;;;;;;11.67;7.67;;;;;17.61;86.02;101204.22;5009627;28;8933;-65
2023/10/11 08:48:17;;;;;;;;;10.25;10.25;;;;;17.61;86.28;101210.50;5009476;28;8922;-65
2023/10/11 08:50:56;;;;;;;;;9.33;6.67;;;;;17.65;86.24;101222.59;5008363;28;8836;-68
2023/10/11 08:53:26;;;;;;;;;9.00;7.00;;;;;17.68;86.33;101213.97;5010064;28;8994;-67
2023/10/11 08:55:59;;;;;;;;;9.75;9.00;;;;;17.68;86.12;101207.69;5009761;28;8995;-67
2023/10/11 08:58:29;;;;;;;;;12.33;10.67;;;;;17.59;86.27;101219.97;5009641;28;8841;-68
2023/10/11 09:00:58;;;;;;;;;7.25;7.00;;;;;17.59;86.69;101211.81;5009469;28;9001;-68
2023/10/11 09:03:28;;;;;;;;;9.75;8.00;;;;;17.61;86.29;101220.56;5009572;28;8825;-68
2023/10/11 09:05:58;;;;;;;;;9.50;7.50;;;;;17.64;86.32;101212.78;5009489;28;8856;-68
2023/10/11 09:08:27;;;;;;;;;8.25;7.25;;;;;17.64;86.02;101229.09;5009455;28;8844;-67
2023/10/11 09:11:05;;;;;;;;;10.25;8.00;;;;;17.66;86.08;101235.16;5009615;28;8825;-67
2023/10/11 09:13:36;;;;;;;;;6.50;6.50;;;;;17.67;86.31;101236.00;5009524;28;8861;-68
2023/10/11 09:16:11;;;;;;;;;9.50;7.25;;;;;17.64;86.04;101234.53;5008174;28;8911;-68
2023/10/11 09:18:39;;;;;;;;;9.25;8.75;;;;;17.63;86.35;101224.72;5008074;28;8845;-67
2023/10/11 09:21:15;;;;;;;;;2.00;2.00;;;;;17.70;85.96;101236.38;5009562;28;8855;-65
2023/10/11 09:23:46;;;;;;;;;7.00;7.00;;;;;17.78;85.82;101257.84;5009414;28;8832;-67
2023/10/11 09:26:21;;;;;;;;;7.00;7.00;;;;;17.79;85.47;101251.34;5009093;28;8852;-67
2023/10/11 09:28:56;;;;;;;;;9.00;7.00;;;;;17.83;85.13;101259.03;5009746;28;8907;-69
2023/10/11 09:31:24;;;;;;;;;7.00;7.00;;;;;17.84;85.01;101269.69;5009739;28;8844;-70
2023/10/11 09:33:53;;;;;;;;;8.75;7.50;;;;;17.84;84.70;101268.88;5009423;28;8840;-69
2023/10/11 09:36:22;;;;;;;;;8.00;5.50;;;;;17.83;84.94;101261.78;5008801;28;8859;-67
2023/10/11 09:38:55;;;;;;;;;9.75;7.75;;;;;17.87;84.53;101265.69;5012078;28;8849;-67
2023/10/11 09:41:24;;;;;;;;;11.00;7.50;;;;;17.85;84.61;101263.19;5013233;28;8848;-68
2023/10/11 09:43:56;;;;;;;;;7.75;6.75;;;;;17.86;84.55;101267.56;5012855;28;8833;-67
2023/10/11 09:46:29;;;;;;;;;4.75;4.75;;;;;17.93;84.53;101259.28;5012679;28;8844;-68
2023/10/11 09:49:00;;;;;;;;;10.25;8.00;;;;;18.01;84.37;101248.06;5011311;28;8832;-67
2023/10/11 09:51:28;;;;;;;;;9.50;8.00;;;;;18.03;84.23;101235.88;5012658;28;8831;-67
2023/10/11 09:54:01;;;;;;;;;8.75;8.75;;;;;18.06;83.97;101250.09;5012803;28;8851;-68
2023/10/11 09:57:03;;;;;;;;;9.25;7.75;;;;;18.13;83.40;101254.38;5012545;28;8825;-67
2023/10/11 10:00:01;;;;;;;;;9.00;8.00;;;;;18.21;83.25;101245.84;5012288;28;8872;-67
2023/10/11 10:02:34;;;;;;;;;8.00;7.00;;;;;18.22;83.09;101247.50;5012534;28;8829;-67
2023/10/11 10:05:05;;;;;;;;;11.50;10.50;;;;;18.27;82.92;101253.09;5011116;28;8829;-67
2023/10/11 10:10:24;;;;;;;;;6.00;5.00;;;;;18.38;82.42;101245.97;5012501;28;8847;-67
2023/10/11 10:12:58;;;;;;;;;10.00;6.50;;;;;18.38;82.49;101242.44;5012246;28;8824;-67
2023/10/11 10:15:33;;;;;;;;;7.50;6.50;;;;;18.44;82.33;101242.31;5012316;28;8841;-67
2023/10/11 10:18:06;;;;;;;;;6.50;6.00;;;;;18.44;82.22;101246.94;5011806;28;9605;-68
2023/10/11 10:20:42;;;;;;;;;12.00;10.00;;;;;18.42;82.46;101241.72;5010955;28;8840;-67
2023/10/11 10:23:15;;;;;;;;;10.25;8.75;;;;;18.46;82.43;101234.72;5012346;28;9645;-67
2023/10/11 10:25:52;;;;;;;;;8.50;8.50;;;;;18.57;82.45;101227.63;5012248;28;8833;-67
2023/10/11 10:28:39;;;;;;;;;6.25;6.00;;;;;18.62;82.14;101235.91;5011622;28;8899;-68
2023/10/11 10:31:17;;;;;;;;;12.50;8.25;;;;;18.65;82.03;101243.63;5012107;28;8821;-68
2023/10/11 10:33:50;;;;;;;;;8.00;8.00;;;;;18.66;81.90;101248.00;5011982;28;8809;-67
2023/10/11 10:36:28;;;;;;;;;6.75;5.75;;;;;18.75;81.53;101216.59;5011835;28;8828;-68
2023/10/11 10:39:05;;;;;;;;;7.50;7.00;;;;;18.69;81.42;101217.53;5012504;28;8832;-68
2023/10/11 10:41:33;;;;;;;;;7.25;5.50;;;;;18.70;81.13;101213.75;5012151;28;8848;-68
2023/10/11 10:44:18;;;;;;;;;10.00;7.50;;;;;18.68;81.28;101223.22;5010724;28;8825;-68
2023/10/11 10:46:44;;;;;;;;;5.75;5.25;;;;;18.69;81.26;101233.06;5011384;28;8845;-68
2023/10/11 10:49:11;;;;;;;;;6.50;6.50;;;;;18.69;81.15;101233.06;5011547;28;8833;-68
2023/10/11 10:51:39;;;;;;;;;7.75;5.75;;;;;18.65;81.23;101238.16;5011827;28;8841;-68
2023/10/11 10:54:14;;;;;;;;;6.00;4.75;;;;;18.67;81.14;101222.38;5011614;28;8836;-68
2023/10/11 10:56:46;;;;;;;;;4.50;4.50;;;;;18.69;80.94;101216.69;5010297;28;8812;-68
2023/10/11 10:59:14;;;;;;;;;3.00;3.00;;;;;18.62;81.24;101224.16;5011584;28;8884;-68
2023/10/11 11:01:44;;;;;;;;;6.50;5.75;;;;;18.68;81.14;101221.34;4993763;28;8849;-68
2023/10/11 11:04:12;;;;;;;;;9.00;6.50;;;;;18.74;80.88;101208.66;5011369;28;8824;-68
2023/10/11 11:06:49;;;;;;;;;9.50;4.00;;;;;18.69;80.83;101212.06;5011109;28;9564;-68
2023/10/11 11:09:25;;;;;;;;;5.25;4.25;;;;;18.73;81.00;101226.91;5011308;28;8912;-68
2023/10/11 11:11:56;;;;;;;;;8.25;7.50;;;;;18.75;80.79;101227.50;5011388;28;8848;-68
2023/10/11 11:14:24;;;;;;;;;3.00;3.00;;;;;18.81;80.57;101225.72;5011214;28;8852;-67
2023/10/11 11:16:57;;;;;;;;;4.75;4.00;;;;;18.90;80.44;101220.72;5010892;28;8907;-68
2023/10/11 11:19:27;;;;;;;;;4.00;4.00;;;;;18.93;80.37;101231.16;5011052;28;8825;-68
2023/10/11 11:22:15;;;;;;;;;6.00;4.00;;;;;18.97;80.34;101226.88;5009724;28;8856;-68
2023/10/11 11:24:43;;;;;;;;;3.00;3.00;;;;;19.01;80.18;101225.34;5011051;28;8839;-68
2023/10/11 11:27:26;;;;;;;;;4.00;4.00;;;;;19.01;80.00;101230.78;5010683;28;9552;-68
2023/10/11 11:29:54;;;;;;;;;3.00;2.75;;;;;19.08;79.76;101220.59;5010911;28;8855;-68
2023/10/11 11:32:41;;;;;;;;;5.25;4.50;;;;;19.13;79.66;101222.59;5010703;28;8854;-68
2023/10/11 11:35:28;;;;;;;;;4.50;4.25;;;;;19.17;79.63;101219.13;5009621;28;8841;-67
2023/10/11 11:38:20;;;;;;;;;5.00;5.00;;;;;19.13;79.77;101217.13;5009561;28;8829;-63
2023/10/11 11:40:51;;;;;;;;;3.50;3.50;;;;;19.15;79.48;101209.50;5010718;28;8891;-68
2023/10/11 11:43:24;;;;;;;;;4.00;4.00;;;;;19.15;79.78;101209.50;5010911;28;8825;-68
2023/10/11 11:45:56;;;;;;;;;4.50;3.75;;;;;19.15;79.67;101209.50;5010628;28;9570;-69
2023/10/11 11:48:23;;;;;;;;;5.00;3.00;;;;;19.16;79.81;101211.16;5010368;28;8867;-68
2023/10/11 11:50:55;;;;;;;;;5.25;5.25;;;;;19.20;79.68;101217.78;5010420;28;8844;-68
2023/10/11 11:53:22;;;;;;;;;4.25;3.00;;;;;19.24;79.59;101214.38;5006987;28;8858;-69
2023/10/11 11:55:49;;;;;;;;;6.00;3.50;;;;;19.29;79.46;101208.16;5009131;28;8918;-70
2023/10/11 11:58:19;;;;;;;;;3.00;3.00;;;;;19.21;79.45;101211.28;5008219;28;8837;-69
2023/10/11 12:00:46;;;;;;;;;9.25;6.50;;;;;19.15;79.73;101201.31;5006768;28;9602;-68
2023/10/11 12:03:13;;;;;;;;;3.25;3.25;;;;;19.15;79.78;101207.59;5008746;28;8867;-69
2023/10/11 12:05:43;;;;;;;;;6.75;5.75;;;;;19.11;79.95;101205.59;5006513;28;8837;-69
2023/10/11 12:08:20;;;;;;;;;4.25;4.00;;;;;19.18;80.06;101217.22;5007811;28;8864;-69
2023/10/11 12:10:49;;;;;;;;;5.25;3.50;;;;;19.20;80.02;101213.19;4998959;28;8841;-64
2023/10/11 12:13:23;;;;;;;;;6.25;6.25;;;;;19.16;79.93;101216.63;5006954;28;8847;-70
2023/10/11 12:15:54;;;;;;;;;3.00;3.00;;;;;19.13;79.78;101208.94;5006919;28;8856;-67
2023/10/11 12:18:35;;;;;;;;;6.25;5.50;;;;;19.16;79.76;101200.25;5007823;28;8863;-68
2023/10/11 12:21:10;;;;;;;;;9.25;4.25;;;;;19.10;79.78;101203.97;5006889;28;8868;-68
2023/10/11 12:23:45;;;;;;;;;4.75;4.25;;;;;19.10;79.96;101195.78;5006700;28;9147;-68
2023/10/11 12:26:13;;;;;;;;;5.00;4.00;;;;;19.09;79.79;101203.13;5006316;28;8825;-67
2023/10/11 12:28:39;;;;;;;;;3.50;3.50;;;;;19.14;79.71;101205.94;5008157;28;8915;-68
2023/10/11 12:31:06;;;;;;;;;3.00;3.00;;;;;19.20;79.71;101199.53;5009562;28;8817;-67
2023/10/11 12:33:33;;;;;;;;;4.75;3.25;;;;;19.25;79.70;101186.00;5009935;28;8843;-67
2023/10/11 12:36:01;;;;;;;;;4.00;3.00;;;;;19.19;79.68;101186.13;5010014;28;8847;-68